Date,TemperatureHighF,TemperatureAvgF,TemperatureLowF,DewpointHighF,DewpointAvgF,DewpointLowF,HumidityHigh,HumidityAvg,HumidityLow,PressureMaxIn,PressureMinIn,WindSpeedMaxMPH,WindSpeedAvgMPH,GustSpeedMaxMPH,PrecipitationSumIn
2013-2-1,16.0,9.4,4.3,14.8,3.6,-0.1,96,77,68,30.43,29.94,14,5,24,0.00
2013-2-2,24.1,17.6,8.5,23.0,15.0,4.1,97,89,81,30.40,30.00,9,3,15,0.00
2013-2-3,23.3,19.1,15.8,21.0,15.9,9.7,96,87,73,30.14,29.91,12,3,18,0.00
2013-2-4,28.0,20.8,12.3,27.7,18.4,11.2,99,91,64,30.14,29.84,7,1,13,0.00
2013-2-5,30.1,26.8,23.6,27.7,23.7,20.0,99,88,73,30.01,29.86,8,1,11,0.00
2013-2-6,34.6,28.7,21.9,27.6,21.4,16.6,90,75,48,30.37,30.01,7,1,13,0.10
2013-2-7,46.5,35.0,21.3,30.7,25.3,17.4,86,69,48,30.32,29.84,6,2,10,0.01
2013-2-8,42.6,31.7,23.1,37.2,27.0,16.5,99,83,70,30.37,29.77,13,4,22,0.16
2013-2-9,35.9,25.5,16.7,18.7,16.7,15.1,96,71,47,30.52,30.35,7,1,14,0.00
2013-2-10,46.8,36.5,24.7,38.4,22.9,16.4,82,59,40,30.35,29.85,9,3,17,0.01
2013-2-11,48.6,41.9,34.9,44.6,33.3,23.4,96,73,49,30.03,29.75,18,7,30,0.00
2013-2-12,43.1,34.3,28.4,25.2,23.5,22.2,81,65,46,30.17,29.94,16,4,24,0.00
2013-2-13,30.7,27.5,23.6,27.6,24.8,22.4,97,89,80,29.94,29.74,6,1,9,0.00
2013-2-14,43.3,32.2,22.6,35.8,29.4,22.5,100,90,72,29.99,29.83,10,2,18,0.00
2013-2-15,33.9,28.4,23.7,30.3,25.8,22.3,98,90,73,30.17,29.99,9,1,15,0.02
2013-2-16,26.0,20.4,14.0,21.9,15.4,5.6,97,81,59,30.16,30.00,12,2,18,0.00
2013-2-17,22.2,15.8,12.0,11.3,7.7,2.6,86,71,52,30.31,30.10,8,2,14,0.00
2013-2-18,48.3,31.4,12.3,30.4,17.9,8.0,85,59,43,30.31,29.77,10,4,22,0.00
2013-2-19,45.1,28.8,17.8,37.2,24.5,12.3,100,84,57,30.10,29.64,18,8,36,0.16
2013-2-20,19.2,17.1,12.7,15.1,11.3,8.0,89,78,67,30.34,30.10,12,6,21,0.00
2013-2-21,25.8,21.2,17.4,16.6,14.9,11.7,90,77,66,30.42,30.26,7,2,13,0.00
2013-2-22,39.8,31.3,23.0,37.0,27.9,15.8,100,87,73,30.27,29.94,10,3,20,0.05
2013-2-23,37.9,33.3,27.7,31.1,26.2,22.5,88,76,56,30.01,29.91,9,2,16,0.00
2013-2-24,31.4,27.7,24.4,23.2,20.2,18.3,86,74,60,30.21,29.94,7,2,14,0.00
2013-2-25,42.4,31.4,18.6,25.3,20.9,17.8,98,68,42,30.26,30.02,7,1,12,0.00
2013-2-26,40.4,35.5,32.2,40.0,30.3,20.2,99,83,58,30.01,29.43,9,3,17,0.41
2013-2-27,40.4,34.9,30.5,39.8,33.5,28.3,99,95,88,29.69,29.46,13,4,25,0.17
2013-2-28,34.2,31.1,28.4,32.5,29.6,26.9,100,94,85,29.92,29.63,9,4,18,0.02